Latest Weather Observations for Williamtown

IDN60901

Issued at 1:21 pm EST Saturday 30 July 2016 (issued every 10 minutes, with the page automatically refreshed every 10 minutes)

About weather observations | Map of Sydney area stations | Latest observations for Sydney area | Other Formats
Station Details ID: 061078 Name: WILLIAMTOWN RAAF Lat: -32.79 Lon: 151.84 Height: 9.0 m
Data from the previous 72 hours. | See also: Recent months at Williamtown
Date/Time
EST
Temp
°C
App
Temp
°C
Dew
Point
°C
Rel
Hum
%
Delta-T
°C
Wind Press
QNH
hPa
Press
MSL
hPa
Rain since
9am
mm
Dir  Spd
km/h
Gust
km/h
Spd
kts
Gust
kts
30/01:00pm 17.5 14.9 6.0 46 5.6 WNW 9 13 5 7 1020.9 1020.9 0.0
30/12:30pm 17.3 13.4 5.2 45 5.8 NW 15 19 8 10 1021.3 1021.3 0.0
30/12:00pm 17.2 12.8 4.7 43 5.9 WNW 17 26 9 14 1021.7 1021.7 0.0
30/11:30am 16.4 11.6 4.4 45 5.6 NW 19 26 10 14 1022.3 1022.3 0.0
30/11:00am 14.9 9.9 4.5 49 4.8 NW 20 26 11 14 1022.7 1022.7 0.0
30/10:30am 14.6 9.1 4.1 49 4.8 WNW 22 28 12 15 1023.0 1023.0 0.0
30/10:00am 13.1 6.8 3.7 53 4.2 WNW 26 33 14 18 1022.9 1022.9 0.0
30/09:30am 11.9 5.2 3.8 57 3.6 NW 28 33 15 18 1023.2 1023.2 0.0
30/09:00am 11.1 4.4 3.9 61 3.2 NW 28 35 15 19 1023.3 1023.3 0.0
30/08:30am 10.3 4.0 3.9 64 2.8 WNW 26 33 14 18 1023.5 1023.5 0.0
30/08:00am 9.0 3.1 3.7 69 2.3 WNW 24 28 13 15 1023.4 1023.4 0.0
30/07:30am 7.8 2.6 3.6 75 1.8 NW 20 28 11 15 1023.2 1023.2 0.0
30/07:00am 7.1 1.9 3.8 79 1.4 WNW 20 28 11 15 1023.0 1023.0 0.0
30/06:30am 7.2 2.0 3.7 78 1.5 WNW 20 30 11 16 1022.7 1022.7 0.0
30/06:00am 7.5 1.9 3.7 77 1.6 WNW 22 30 12 16 1022.5 1022.5 0.0
30/05:30am 7.7 2.5 3.7 76 1.7 WNW 20 28 11 15 1022.3 1022.3 0.0
30/05:00am 7.8 1.5 3.8 76 1.7 WNW 26 32 14 17 1022.1 1022.1 0.0
30/04:30am 7.2 1.7 3.9 79 1.4 WNW 22 32 12 17 1022.0 1022.0 0.0
30/04:00am 7.7 2.2 4.0 77 1.6 WNW 22 28 12 15 1021.8 1021.8 0.0
30/03:30am 7.7 2.2 4.0 77 1.6 WNW 22 32 12 17 1021.7 1021.7 0.0
30/03:00am 7.9 2.4 4.2 77 1.6 WNW 22 30 12 16 1021.7 1021.7 0.0
30/02:30am 7.8 2.4 4.3 78 1.5 WNW 22 28 12 15 1021.7 1021.7 0.0
30/02:00am 8.0 2.6 4.3 77 1.6 WNW 22 28 12 15 1021.7 1021.7 0.0
30/01:30am 8.3 2.9 4.4 76 1.7 WNW 22 28 12 15 1021.8 1021.8 0.0
30/01:00am 8.6 3.2 4.5 75 1.8 WNW 22 30 12 16 1021.7 1021.7 0.0
30/12:30am 8.8 3.8 4.7 75 1.8 WNW 20 28 11 15 1021.7 1021.7 0.0
30/12:00am 9.1 4.3 4.8 74 1.9 WNW 19 24 10 13 1021.6 1021.6 0.0
 
Date/Time
EST
Temp
°C
App
Temp
°C
Dew
Point
°C
Rel
Hum
%
Delta-T
°C
Wind Press
QNH
hPa
Press
MSL
hPa
Rain since
9am
mm
Dir  Spd
km/h
Gust
km/h
Spd
kts
Gust
kts
29/11:30pm 9.6 4.6 4.6 71 2.2 WNW 20 28 11 15 1021.6 1021.6 0.0
29/11:00pm 10.2 4.4 4.6 68 2.5 WNW 24 32 13 17 1021.4 1021.4 0.0
29/10:30pm 10.5 4.4 4.7 67 2.6 WNW 26 35 14 19 1021.0 1021.0 0.0
29/10:00pm 10.9 5.1 4.4 64 2.9 WNW 24 35 13 19 1020.6 1020.6 0.0
29/09:30pm 11.6 5.0 4.2 60 3.3 WNW 28 41 15 22 1020.8 1020.8 0.0
29/09:00pm 11.8 4.4 4.2 59 3.4 WNW 32 39 17 21 1020.5 1020.5 0.0
29/08:30pm 11.9 4.4 3.5 56 3.7 WNW 32 37 17 20 1020.2 1020.2 0.0
29/08:00pm 11.7 5.3 3.3 56 3.7 WNW 26 33 14 18 1020.1 1020.1 0.0
29/07:30pm 11.9 6.2 3.0 54 3.9 WNW 22 32 12 17 1020.0 1020.0 0.0
29/07:00pm 11.8 7.0 2.8 54 3.9 NW 17 22 9 12 1019.6 1019.6 0.0
29/06:30pm 12.3 7.0 2.9 52 4.1 NW 20 26 11 14 1019.4 1019.4 0.0
29/06:00pm 12.1 6.4 2.7 52 4.1 WNW 22 26 12 14 1019.3 1019.3 0.0
29/05:30pm 13.0 7.6 2.2 48 4.7 WNW 20 30 11 16 1019.0 1019.0 0.0
29/05:00pm 14.2 8.4 2.1 44 5.3 WNW 22 30 12 16 1019.0 1019.0 0.0
29/04:30pm 15.4 8.9 2.4 41 5.8 WNW 26 32 14 17 1018.6 1018.6 0.0
29/04:00pm 16.2 8.5 2.4 39 6.2 NW 32 41 17 22 1018.5 1018.5 0.0
29/03:30pm 16.5 9.7 3.1 40 6.1 WNW 28 39 15 21 1018.7 1018.7 0.0
29/03:00pm 16.7 9.9 3.1 40 6.2 WNW 28 39 15 21 1018.7 1018.7 0.0
29/02:30pm 17.5 11.2 3.5 39 6.5 WNW 26 35 14 19 1018.7 1018.7 0.0
29/02:00pm 17.2 10.3 2.7 38 6.6 WNW 28 33 15 18 1018.9 1018.9 0.0
29/01:30pm 16.9 9.3 2.8 39 6.4 WNW 32 39 17 21 1019.2 1019.2 0.0
29/01:00pm 16.4 9.6 3.0 40 6.1 NW 28 35 15 19 1019.8 1019.8 0.0
29/12:30pm 16.7 9.6 3.4 41 6.1 NW 30 37 16 20 1020.4 1020.4 0.0
29/12:00pm 15.7 8.5 3.1 43 5.7 NW 30 39 16 21 1021.1 1021.1 0.0
29/11:30am 14.7 7.9 3.1 45 5.2 NW 28 35 15 19 1021.9 1021.9 0.0
29/11:00am 14.1 7.3 3.1 47 4.9 NW 28 35 15 19 1022.7 1022.7 0.0
29/10:30am 13.0 5.4 2.7 49 4.5 WNW 32 44 17 24 1023.1 1023.1 0.0
29/10:00am 11.9 4.0 2.4 52 4.1 WNW 33 41 18 22 1023.5 1023.5 0.0
29/09:30am 11.2 2.5 2.0 53 3.9 WNW 37 48 20 26 1023.6 1023.6 0.0
29/09:00am 10.5 2.3 2.8 59 3.3 WNW 35 48 19 26 1023.6 1023.6 0.0
29/08:30am 9.5 2.7 2.9 63 2.8 WNW 28 43 15 23 1023.6 1023.6 0.0
29/08:00am 8.6 2.5 2.9 67 2.4 WNW 24 35 13 19 1023.5 1023.5 0.0
29/07:30am 7.6 2.3 3.1 73 1.9 WNW 20 28 11 15 1023.6 1023.6 0.0
29/07:00am 6.6 1.9 3.0 78 1.5 WNW 17 26 9 14 1023.5 1023.5 0.0
29/06:30am 6.6 1.9 3.0 78 1.5 WNW 17 24 9 13 1023.5 1023.5 0.0
29/06:00am 6.4 2.1 3.3 80 1.3 WNW 15 20 8 11 1023.2 1023.2 0.0
29/05:30am 6.8 1.7 3.2 78 1.5 WNW 19 28 10 15 1023.0 1023.0 0.0
29/05:00am 7.4 1.8 3.4 76 1.7 WNW 22 30 12 16 1023.1 1023.1 0.0
29/04:30am 7.8 1.0 3.3 73 1.9 WNW 28 33 15 18 1022.9 1022.9 0.0
29/04:00am 8.0 1.7 3.8 75 1.8 WNW 26 32 14 17 1022.8 1022.8 0.0
29/03:30am 8.0 1.4 4.1 76 1.7 WNW 28 35 15 19 1022.6 1022.6 0.0
29/03:00am 8.1 2.3 4.2 76 1.7 WNW 24 32 13 17 1022.7 1022.7 0.0
29/02:30am 8.3 2.9 4.7 78 1.6 WNW 22 28 12 15 1022.7 1022.7 0.0
29/02:00am 8.5 3.7 4.9 78 1.6 WNW 19 26 10 14 1022.7 1022.7 0.0
29/01:30am 8.6 3.9 5.0 78 1.6 WNW 19 24 10 13 1022.8 1022.8 0.0
29/01:00am 9.3 4.4 5.0 74 1.9 WNW 20 28 11 15 1022.9 1022.9 0.0
29/12:30am 9.5 4.8 5.0 73 2.0 WNW 19 26 10 14 1023.0 1023.0 0.0
29/12:00am 9.3 4.6 5.3 76 1.8 WNW 19 26 10 14 1023.1 1023.1 0.0
 
Date/Time
EST
Temp
°C
App
Temp
°C
Dew
Point
°C
Rel
Hum
%
Delta-T
°C
Wind Press
QNH
hPa
Press
MSL
hPa
Rain since
9am
mm
Dir  Spd
km/h
Gust
km/h
Spd
kts
Gust
kts
28/11:30pm 9.2 5.3 5.4 77 1.7 WNW 15 20 8 11 1023.1 1023.1 0.0
28/11:00pm 9.2 5.4 5.7 79 1.6 WNW 15 19 8 10 1023.1 1023.1 0.0
28/10:30pm 9.6 5.8 5.9 78 1.7 WNW 15 19 8 10 1023.1 1023.1 0.0
28/10:00pm 9.5 6.0 5.5 76 1.8 NW 13 17 7 9 1022.9 1022.9 0.0
28/09:30pm 8.8 5.7 5.5 80 1.5 WNW 11 13 6 7 1022.9 1022.9 0.0
28/09:00pm 9.5 6.8 5.5 76 1.8 WNW 9 11 5 6 1022.7 1022.7 0.0
28/08:30pm 9.8 6.7 5.6 75 1.9 NW 11 11 6 6 1022.6 1022.6 0.0
28/08:00pm 10.7 8.0 5.4 70 2.4 NNW 9 11 5 6 1022.5 1022.5 0.0
28/07:30pm 12.0 8.8 5.2 63 3.1 NNW 11 11 6 6 1022.5 1022.5 0.0
28/07:00pm 12.4 8.8 5.2 61 3.3 NW 13 17 7 9 1022.1 1022.1 0.0
28/06:30pm 12.9 9.7 5.1 59 3.6 NW 11 13 6 7 1022.1 1022.1 0.0
28/06:00pm 13.2 9.3 5.2 58 3.7 NW 15 17 8 9 1021.9 1021.9 0.0
28/05:30pm 13.6 9.3 5.2 57 3.9 WNW 17 24 9 13 1021.7 1021.7 0.0
28/05:00pm 15.2 10.5 5.0 50 4.8 NW 19 24 10 13 1021.5 1021.5 0.0
28/04:30pm 16.6 11.1 3.9 42 5.9 NW 22 32 12 17 1021.4 1021.4 0.0
28/04:00pm 17.2 10.8 3.3 39 6.4 WNW 26 37 14 20 1021.5 1021.5 0.0
28/03:30pm 17.7 11.7 3.4 38 6.6 WNW 24 32 13 17 1021.4 1021.4 0.0
28/03:00pm 18.0 11.6 3.0 36 6.9 WNW 26 33 14 18 1021.6 1021.6 0.0
28/02:30pm 17.9 11.3 2.2 35 7.1 WNW 26 35 14 19 1021.7 1021.7 0.0
28/02:00pm 17.7 12.3 2.2 35 7.0 W 20 30 11 16 1021.9 1021.9 0.0
28/01:30pm 17.6 11.5 3.0 37 6.7 NW 24 30 13 16 1022.2 1022.2 0.0
28/01:00pm 17.6 12.2 2.7 37 6.8 WNW 20 28 11 15 1022.5 1022.5 0.0
28/12:30pm 16.6 10.4 2.0 37 6.5 WNW 24 32 13 17 1023.1 1023.1 0.0
28/12:00pm 16.5 10.4 2.8 40 6.2 WNW 24 37 13 20 1023.7 1023.7 0.0
28/11:30am 16.2 9.8 3.2 41 5.9 WNW 26 33 14 18 1024.2 1024.2 0.0
28/11:00am 15.6 8.6 4.1 46 5.3 WNW 30 37 16 20 1024.7 1024.7 0.0
28/10:30am 14.6 7.7 4.7 51 4.6 WNW 30 39 16 21 1025.1 1025.1 0.0
28/10:00am 14.1 6.7 4.8 53 4.3 WNW 33 39 18 21 1025.2 1025.2 0.0
28/09:30am 13.2 6.3 4.7 56 3.9 WNW 30 41 16 22 1025.1 1025.1 0.0
28/09:00am 12.1 5.1 4.3 59 3.5 WNW 30 37 16 20 1024.9 1024.9 0.0
28/08:30am 10.9 3.6 4.7 65 2.8 WNW 32 41 17 22 1024.8 1024.8 0.0
28/08:00am 9.8 3.7 4.6 70 2.3 WNW 26 32 14 17 1024.4 1024.4 0.0
28/07:30am 8.9 3.1 4.6 74 1.9 WNW 24 30 13 16 1024.1 1024.1 0.0
28/07:00am 8.3 2.5 4.4 76 1.7 WNW 24 30 13 16 1023.6 1023.6 0.0
28/06:30am 8.0 2.6 4.3 77 1.6 WNW 22 30 12 16 1023.2 1023.2 0.0
28/06:00am 7.5 2.4 4.3 80 1.4 WNW 20 28 11 15 1022.9 1022.9 0.0
28/05:30am 7.0 2.2 4.5 84 1.1 NW 19 22 10 12 1022.8 1022.8 0.0
28/05:00am 8.1 3.2 4.2 76 1.7 NW 19 24 10 13 1022.3 1022.3 0.0
28/04:30am 8.6 3.5 4.2 74 1.9 NW 20 26 11 14 1021.9 1021.9 0.0
28/04:00am 8.8 3.3 4.2 73 2.0 WNW 22 26 12 14 1021.8 1021.8 0.0
28/03:30am 8.8 3.7 4.2 73 2.0 WNW 20 26 11 14 1021.7 1021.7 0.0
28/03:00am 9.1 4.0 4.1 71 2.2 WNW 20 28 11 15 1021.8 1021.8 0.0
28/02:30am 9.5 4.4 4.0 68 2.4 WNW 20 30 11 16 1022.0 1022.0 0.0
28/02:00am 9.2 4.6 3.9 69 2.3 WNW 17 24 9 13 1022.0 1022.0 0.0
28/01:30am 9.8 4.6 3.8 66 2.6 WNW 20 28 11 15 1021.8 1021.8 0.0
28/01:00am 10.0 4.8 3.8 65 2.7 WNW 20 30 11 16 1021.6 1021.6 0.0
28/12:30am 10.3 5.1 3.7 63 2.9 WNW 20 28 11 15 1021.4 1021.4 0.0
28/12:00am 10.2 5.9 3.5 63 2.9 WNW 15 19 8 10 1021.4 1021.4 0.0
 
Date/Time
EST
Temp
°C
App
Temp
°C
Dew
Point
°C
Rel
Hum
%
Delta-T
°C
Wind Press
QNH
hPa
Press
MSL
hPa
Rain since
9am
mm
Dir  Spd
km/h
Gust
km/h
Spd
kts
Gust
kts
27/11:30pm 10.5 5.3 3.6 62 3.0 WNW 20 28 11 15 1021.2 1021.2 0.0
27/11:00pm 11.0 5.4 3.5 60 3.3 WNW 22 30 12 16 1021.0 1021.0 0.0
27/10:30pm 11.0 6.0 3.5 60 3.3 WNW 19 26 10 14 1020.8 1020.8 0.0
27/10:00pm 11.0 5.9 3.2 58 3.4 W 19 24 10 13 1020.8 1020.8 0.0
27/09:30pm 11.2 5.9 3.2 58 3.5 WNW 20 26 11 14 1020.6 1020.6 0.0
27/09:00pm 11.6 6.5 2.8 54 3.8 WNW 19 22 10 12 1020.4 1020.4 0.0
27/08:30pm 12.5 6.8 2.6 51 4.3 WNW 22 30 12 16 1020.0 1020.0 0.0
27/08:00pm 12.3 7.2 2.9 52 4.1 WNW 19 26 10 14 1019.6 1019.6 0.0
27/07:30pm 12.7 7.6 2.9 51 4.3 WNW 19 26 10 14 1019.1 1019.1 0.0
27/07:00pm 13.1 7.9 2.3 48 4.7 WNW 19 28 10 15 1018.5 1018.5 0.0
27/06:30pm 12.3 8.3 2.7 52 4.2 WNW 13 17 7 9 1018.0 1018.0 0.0
27/06:00pm 12.9 8.3 1.7 46 4.8 WNW 15 19 8 10 1017.3 1017.3 0.0
27/05:30pm 14.9 9.5 1.3 39 5.9 WNW 19 28 10 15 1016.7 1016.7 0.0
27/05:00pm 15.9 10.4 1.6 38 6.3 WNW 20 28 11 15 1016.1 1016.1 0.0
27/04:30pm 17.5 11.1 1.2 33 7.2 WNW 24 35 13 19 1015.5 1015.5 0.0
27/04:05pm 18.0 10.4 0.7 31 7.6 WNW 30 48 16 26 1015.1 1015.1 0.0
27/04:00pm 18.1 10.6 1.3 32 7.5 WNW 30 41 16 22 1015.1 1015.1 0.0
27/03:30pm 18.6 9.7 0.8 30 7.9 WNW 37 59 20 32 1014.5 1014.5 0.0
27/03:00pm 18.2 9.5 2.1 34 7.3 WNW 37 54 20 29 1014.0 1014.0 0.0
27/02:30pm 17.8 8.1 2.7 36 6.9 WNW 43 59 23 32 1014.1 1014.1 0.0
27/02:00pm 19.1 9.5 3.3 35 7.4 WNW 43 59 23 32 1013.9 1013.9 0.0
27/01:30pm 18.9 8.7 3.0 34 7.4 WNW 46 63 25 34 1013.7 1013.7 0.0

Latest Capital City Observations: Canberra | Sydney | Melbourne | Brisbane | Adelaide | Perth | Hobart | Darwin

Other Formats:

Comma delimited format used in spreadsheet applications
http://www.bom.gov.au/fwo/IDN60901/IDN60901.94776.axf

JavaScript Object Notation format (JSON) in row-major order
http://www.bom.gov.au/fwo/IDN60901/IDN60901.94776.json